<?xml version="1.0" encoding="utf-8"?>
<gpx xmlns:xsi="http://www.w3.org/2001/XMLSchema-instance" xmlns:xsd="http://www.w3.org/2001/XMLSchema" version="1.1" creator="Shapelink.com" xmlns="http://www.topografix.com/GPX/1/1" xmlns:gpxtpx="http://www.garmin.com/xmlschemas/TrackPointExtension/v1">
  <metadata>
    <name>Gåing 6.37 km, 2012-03-12</name>
    <desc></desc>
    <author><name>Mikael Blom</name></author> 
    <time>2012-03-12T14:17:03Z</time>
  </metadata>
  <trk>
    <name>Gåing 6.37 km, 2012-03-12</name>
    <trkseg>
      <trkpt lat="59.9789589" lon="17.7393018">
        <ele>30.8995</ele>
        <time>2012-03-12T14:17:03Z</time>
      </trkpt>
      <trkpt lat="59.9790671" lon="17.7392487">
        <ele>32.8223</ele>
        <time>2012-03-12T14:17:10Z</time>
      </trkpt>
      <trkpt lat="59.9791825" lon="17.7391885">
        <ele>33.3029</ele>
        <time>2012-03-12T14:17:18Z</time>
      </trkpt>
      <trkpt lat="59.9792537" lon="17.7391265">
        <ele>33.7834</ele>
        <time>2012-03-12T14:17:24Z</time>
      </trkpt>
      <trkpt lat="59.9793351" lon="17.7390938">
        <ele>34.7449</ele>
        <time>2012-03-12T14:17:30Z</time>
      </trkpt>
      <trkpt lat="59.9793598" lon="17.7390885">
        <ele>34.7449</ele>
        <time>2012-03-12T14:17:32Z</time>
      </trkpt>
      <trkpt lat="59.9793723" lon="17.7391027">
        <ele>33.7834</ele>
        <time>2012-03-12T14:17:38Z</time>
      </trkpt>
      <trkpt lat="59.9793603" lon="17.7391062">
        <ele>33.3029</ele>
        <time>2012-03-12T14:17:39Z</time>
      </trkpt>
      <trkpt lat="59.9792369" lon="17.7391611">
        <ele>31.8607</ele>
        <time>2012-03-12T14:17:49Z</time>
      </trkpt>
      <trkpt lat="59.9791306" lon="17.7392348">
        <ele>32.3416</ele>
        <time>2012-03-12T14:17:56Z</time>
      </trkpt>
      <trkpt lat="59.9790442" lon="17.7392813">
        <ele>33.7834</ele>
        <time>2012-03-12T14:18:02Z</time>
      </trkpt>
      <trkpt lat="59.9789555" lon="17.7393661">
        <ele>34.7449</ele>
        <time>2012-03-12T14:18:09Z</time>
      </trkpt>
      <trkpt lat="59.978936" lon="17.7394104">
        <ele>34.2642</ele>
        <time>2012-03-12T14:18:15Z</time>
      </trkpt>
      <trkpt lat="59.9789117" lon="17.7393818">
        <ele>34.2642</ele>
        <time>2012-03-12T14:18:17Z</time>
      </trkpt>
      <trkpt lat="59.9788401" lon="17.7393696">
        <ele>34.7449</ele>
        <time>2012-03-12T14:18:22Z</time>
      </trkpt>
      <trkpt lat="59.9787727" lon="17.739347">
        <ele>34.7449</ele>
        <time>2012-03-12T14:18:27Z</time>
      </trkpt>
      <trkpt lat="59.9786791" lon="17.739329">
        <ele>34.2642</ele>
        <time>2012-03-12T14:18:33Z</time>
      </trkpt>
      <trkpt lat="59.9785901" lon="17.7393129">
        <ele>32.8223</ele>
        <time>2012-03-12T14:18:39Z</time>
      </trkpt>
      <trkpt lat="59.9785284" lon="17.7393055">
        <ele>32.3416</ele>
        <time>2012-03-12T14:18:43Z</time>
      </trkpt>
      <trkpt lat="59.9783922" lon="17.7392778">
        <ele>32.8223</ele>
        <time>2012-03-12T14:18:51Z</time>
      </trkpt>
      <trkpt lat="59.9783044" lon="17.739258">
        <ele>33.3029</ele>
        <time>2012-03-12T14:18:57Z</time>
      </trkpt>
      <trkpt lat="59.9782324" lon="17.7392077">
        <ele>34.2642</ele>
        <time>2012-03-12T14:19:03Z</time>
      </trkpt>
      <trkpt lat="59.9781637" lon="17.7391994">
        <ele>32.8223</ele>
        <time>2012-03-12T14:19:07Z</time>
      </trkpt>
      <trkpt lat="59.9780983" lon="17.7391407">
        <ele>33.3029</ele>
        <time>2012-03-12T14:19:12Z</time>
      </trkpt>
      <trkpt lat="59.9780918" lon="17.7391279">
        <ele>33.3029</ele>
        <time>2012-03-12T14:19:13Z</time>
      </trkpt>
      <trkpt lat="59.9780687" lon="17.7391057">
        <ele>32.8223</ele>
        <time>2012-03-12T14:19:15Z</time>
      </trkpt>
      <trkpt lat="59.9780253" lon="17.7391098">
        <ele>32.3416</ele>
        <time>2012-03-12T14:19:17Z</time>
      </trkpt>
      <trkpt lat="59.977934" lon="17.7390692">
        <ele>32.3416</ele>
        <time>2012-03-12T14:19:23Z</time>
      </trkpt>
      <trkpt lat="59.9778648" lon="17.7390486">
        <ele>31.3801</ele>
        <time>2012-03-12T14:19:27Z</time>
      </trkpt>
      <trkpt lat="59.9778342" lon="17.7390465">
        <ele>30.4188</ele>
        <time>2012-03-12T14:19:29Z</time>
      </trkpt>
      <trkpt lat="59.9777156" lon="17.7390417">
        <ele>29.9381</ele>
        <time>2012-03-12T14:19:36Z</time>
      </trkpt>
      <trkpt lat="59.9776671" lon="17.7390316">
        <ele>29.4575</ele>
        <time>2012-03-12T14:19:39Z</time>
      </trkpt>
      <trkpt lat="59.9776032" lon="17.7390273">
        <ele>29.9381</ele>
        <time>2012-03-12T14:19:43Z</time>
      </trkpt>
      <trkpt lat="59.9775219" lon="17.7390414">
        <ele>29.4575</ele>
        <time>2012-03-12T14:19:49Z</time>
      </trkpt>
      <trkpt lat="59.9775082" lon="17.7390465">
        <ele>29.4575</ele>
        <time>2012-03-12T14:19:50Z</time>
      </trkpt>
      <trkpt lat="59.9774349" lon="17.7390713">
        <ele>28.0155</ele>
        <time>2012-03-12T14:19:55Z</time>
      </trkpt>
      <trkpt lat="59.9773924" lon="17.7391138">
        <ele>28.0155</ele>
        <time>2012-03-12T14:19:59Z</time>
      </trkpt>
      <trkpt lat="59.9773805" lon="17.739115">
        <ele>28.4962</ele>
        <time>2012-03-12T14:20:00Z</time>
      </trkpt>
      <trkpt lat="59.9773324" lon="17.7391454">
        <ele>28.4962</ele>
        <time>2012-03-12T14:20:04Z</time>
      </trkpt>
      <trkpt lat="59.9772257" lon="17.7392151">
        <ele>27.5349</ele>
        <time>2012-03-12T14:20:12Z</time>
      </trkpt>
      <trkpt lat="59.9771461" lon="17.7392642">
        <ele>25.6123</ele>
        <time>2012-03-12T14:20:18Z</time>
      </trkpt>
      <trkpt lat="59.9770506" lon="17.739336">
        <ele>25.6123</ele>
        <time>2012-03-12T14:20:25Z</time>
      </trkpt>
      <trkpt lat="59.9769648" lon="17.7393687">
        <ele>26.5736</ele>
        <time>2012-03-12T14:20:31Z</time>
      </trkpt>
      <trkpt lat="59.9769536" lon="17.7393657">
        <ele>26.0929</ele>
        <time>2012-03-12T14:20:32Z</time>
      </trkpt>
      <trkpt lat="59.9768744" lon="17.7393736">
        <ele>25.6123</ele>
        <time>2012-03-12T14:20:38Z</time>
      </trkpt>
      <trkpt lat="59.9768429" lon="17.7393766">
        <ele>25.6123</ele>
        <time>2012-03-12T14:20:40Z</time>
      </trkpt>
      <trkpt lat="59.9767141" lon="17.7394261">
        <ele>26.0929</ele>
        <time>2012-03-12T14:20:48Z</time>
      </trkpt>
      <trkpt lat="59.9765919" lon="17.7395165">
        <ele>27.5349</ele>
        <time>2012-03-12T14:20:56Z</time>
      </trkpt>
      <trkpt lat="59.9764888" lon="17.7396571">
        <ele>30.4188</ele>
        <time>2012-03-12T14:21:03Z</time>
      </trkpt>
      <trkpt lat="59.9764003" lon="17.7398128">
        <ele>31.8607</ele>
        <time>2012-03-12T14:21:10Z</time>
      </trkpt>
      <trkpt lat="59.9763331" lon="17.7399654">
        <ele>32.3416</ele>
        <time>2012-03-12T14:21:16Z</time>
      </trkpt>
      <trkpt lat="59.9762852" lon="17.7401101">
        <ele>30.8995</ele>
        <time>2012-03-12T14:21:21Z</time>
      </trkpt>
      <trkpt lat="59.976222" lon="17.7403143">
        <ele>29.4575</ele>
        <time>2012-03-12T14:21:28Z</time>
      </trkpt>
      <trkpt lat="59.9761381" lon="17.7405732">
        <ele>30.4188</ele>
        <time>2012-03-12T14:21:38Z</time>
      </trkpt>
      <trkpt lat="59.9760716" lon="17.7408026">
        <ele>31.3801</ele>
        <time>2012-03-12T14:21:47Z</time>
      </trkpt>
      <trkpt lat="59.976" lon="17.7410669">
        <ele>32.3416</ele>
        <time>2012-03-12T14:21:57Z</time>
      </trkpt>
      <trkpt lat="59.9759378" lon="17.7412817">
        <ele>32.3416</ele>
        <time>2012-03-12T14:22:05Z</time>
      </trkpt>
      <trkpt lat="59.9758853" lon="17.7414979">
        <ele>31.8607</ele>
        <time>2012-03-12T14:22:13Z</time>
      </trkpt>
      <trkpt lat="59.9758129" lon="17.741795">
        <ele>31.8607</ele>
        <time>2012-03-12T14:22:24Z</time>
      </trkpt>
      <trkpt lat="59.9757542" lon="17.7420065">
        <ele>30.8995</ele>
        <time>2012-03-12T14:22:32Z</time>
      </trkpt>
      <trkpt lat="59.9757373" lon="17.7421599">
        <ele>31.8607</ele>
        <time>2012-03-12T14:22:37Z</time>
      </trkpt>
      <trkpt lat="59.9756996" lon="17.7423447">
        <ele>32.3416</ele>
        <time>2012-03-12T14:22:43Z</time>
      </trkpt>
      <trkpt lat="59.9756472" lon="17.7425357">
        <ele>31.8607</ele>
        <time>2012-03-12T14:22:50Z</time>
      </trkpt>
      <trkpt lat="59.9755866" lon="17.742727">
        <ele>31.8607</ele>
        <time>2012-03-12T14:22:57Z</time>
      </trkpt>
      <trkpt lat="59.9755307" lon="17.7429136">
        <ele>30.8995</ele>
        <time>2012-03-12T14:23:04Z</time>
      </trkpt>
      <trkpt lat="59.9755011" lon="17.7430213">
        <ele>30.4188</ele>
        <time>2012-03-12T14:23:08Z</time>
      </trkpt>
      <trkpt lat="59.9754529" lon="17.7431988">
        <ele>30.4188</ele>
        <time>2012-03-12T14:23:15Z</time>
      </trkpt>
      <trkpt lat="59.9753876" lon="17.7434795">
        <ele>29.9381</ele>
        <time>2012-03-12T14:23:25Z</time>
      </trkpt>
      <trkpt lat="59.9753486" lon="17.7437119">
        <ele>30.4188</ele>
        <time>2012-03-12T14:23:33Z</time>
      </trkpt>
      <trkpt lat="59.9753039" lon="17.74394">
        <ele>28.9769</ele>
        <time>2012-03-12T14:23:40Z</time>
      </trkpt>
      <trkpt lat="59.9752598" lon="17.7441484">
        <ele>27.0543</ele>
        <time>2012-03-12T14:23:47Z</time>
      </trkpt>
      <trkpt lat="59.9751879" lon="17.7444505">
        <ele>28.4962</ele>
        <time>2012-03-12T14:23:57Z</time>
      </trkpt>
      <trkpt lat="59.9751126" lon="17.7447654">
        <ele>29.4575</ele>
        <time>2012-03-12T14:24:08Z</time>
      </trkpt>
      <trkpt lat="59.9750292" lon="17.7450256">
        <ele>29.4575</ele>
        <time>2012-03-12T14:24:18Z</time>
      </trkpt>
      <trkpt lat="59.9750053" lon="17.7451014">
        <ele>29.9381</ele>
        <time>2012-03-12T14:24:21Z</time>
      </trkpt>
      <trkpt lat="59.9749501" lon="17.7452757">
        <ele>31.3801</ele>
        <time>2012-03-12T14:24:28Z</time>
      </trkpt>
      <trkpt lat="59.9748935" lon="17.745432">
        <ele>31.8607</ele>
        <time>2012-03-12T14:24:34Z</time>
      </trkpt>
      <trkpt lat="59.9748303" lon="17.7456045">
        <ele>32.8223</ele>
        <time>2012-03-12T14:24:41Z</time>
      </trkpt>
      <trkpt lat="59.9747749" lon="17.7457489">
        <ele>32.8223</ele>
        <time>2012-03-12T14:24:47Z</time>
      </trkpt>
      <trkpt lat="59.9747229" lon="17.7458705">
        <ele>33.7834</ele>
        <time>2012-03-12T14:24:53Z</time>
      </trkpt>
      <trkpt lat="59.9746495" lon="17.7460149">
        <ele>33.7834</ele>
        <time>2012-03-12T14:25:00Z</time>
      </trkpt>
      <trkpt lat="59.9745719" lon="17.7461432">
        <ele>33.3029</ele>
        <time>2012-03-12T14:25:06Z</time>
      </trkpt>
      <trkpt lat="59.9745644" lon="17.7461981">
        <ele>34.2642</ele>
        <time>2012-03-12T14:25:09Z</time>
      </trkpt>
      <trkpt lat="59.9745095" lon="17.746262">
        <ele>33.7834</ele>
        <time>2012-03-12T14:25:14Z</time>
      </trkpt>
      <trkpt lat="59.9744831" lon="17.7462993">
        <ele>34.2642</ele>
        <time>2012-03-12T14:25:16Z</time>
      </trkpt>
      <trkpt lat="59.9744268" lon="17.7463837">
        <ele>35.2255</ele>
        <time>2012-03-12T14:25:21Z</time>
      </trkpt>
      <trkpt lat="59.9743667" lon="17.7464547">
        <ele>36.1868</ele>
        <time>2012-03-12T14:25:25Z</time>
      </trkpt>
      <trkpt lat="59.9742988" lon="17.7465508">
        <ele>35.7061</ele>
        <time>2012-03-12T14:25:30Z</time>
      </trkpt>
      <trkpt lat="59.9742637" lon="17.7466063">
        <ele>35.2255</ele>
        <time>2012-03-12T14:25:32Z</time>
      </trkpt>
      <trkpt lat="59.974146" lon="17.7467418">
        <ele>36.6675</ele>
        <time>2012-03-12T14:25:41Z</time>
      </trkpt>
      <trkpt lat="59.9740803" lon="17.7468277">
        <ele>37.6287</ele>
        <time>2012-03-12T14:25:46Z</time>
      </trkpt>
      <trkpt lat="59.9740117" lon="17.7469143">
        <ele>37.1481</ele>
        <time>2012-03-12T14:25:51Z</time>
      </trkpt>
      <trkpt lat="59.9738861" lon="17.747051">
        <ele>36.1868</ele>
        <time>2012-03-12T14:26:00Z</time>
      </trkpt>
      <trkpt lat="59.9738107" lon="17.7471608">
        <ele>35.7061</ele>
        <time>2012-03-12T14:26:05Z</time>
      </trkpt>
      <trkpt lat="59.9737446" lon="17.7472282">
        <ele>35.2255</ele>
        <time>2012-03-12T14:26:11Z</time>
      </trkpt>
      <trkpt lat="59.9736938" lon="17.7472681">
        <ele>35.2255</ele>
        <time>2012-03-12T14:26:15Z</time>
      </trkpt>
      <trkpt lat="59.9735854" lon="17.747367">
        <ele>36.6675</ele>
        <time>2012-03-12T14:26:22Z</time>
      </trkpt>
      <trkpt lat="59.9735709" lon="17.7473824">
        <ele>36.6675</ele>
        <time>2012-03-12T14:26:23Z</time>
      </trkpt>
      <trkpt lat="59.9735046" lon="17.7474373">
        <ele>35.7061</ele>
        <time>2012-03-12T14:26:27Z</time>
      </trkpt>
      <trkpt lat="59.9733764" lon="17.7475791">
        <ele>36.6675</ele>
        <time>2012-03-12T14:26:35Z</time>
      </trkpt>
      <trkpt lat="59.9732648" lon="17.747715">
        <ele>36.1868</ele>
        <time>2012-03-12T14:26:43Z</time>
      </trkpt>
      <trkpt lat="59.9731684" lon="17.7478128">
        <ele>37.1481</ele>
        <time>2012-03-12T14:26:50Z</time>
      </trkpt>
      <trkpt lat="59.9731209" lon="17.7478717">
        <ele>36.6675</ele>
        <time>2012-03-12T14:26:54Z</time>
      </trkpt>
      <trkpt lat="59.9730637" lon="17.747908">
        <ele>38.1094</ele>
        <time>2012-03-12T14:26:59Z</time>
      </trkpt>
      <trkpt lat="59.9730472" lon="17.7479357">
        <ele>37.6287</ele>
        <time>2012-03-12T14:27:00Z</time>
      </trkpt>
      <trkpt lat="59.9729433" lon="17.7481313">
        <ele>36.6675</ele>
        <time>2012-03-12T14:27:08Z</time>
      </trkpt>
      <trkpt lat="59.9728785" lon="17.7482784">
        <ele>35.2255</ele>
        <time>2012-03-12T14:27:15Z</time>
      </trkpt>
      <trkpt lat="59.9728071" lon="17.7484473">
        <ele>34.7449</ele>
        <time>2012-03-12T14:27:22Z</time>
      </trkpt>
      <trkpt lat="59.9726565" lon="17.7487381">
        <ele>34.2642</ele>
        <time>2012-03-12T14:27:33Z</time>
      </trkpt>
      <trkpt lat="59.9725961" lon="17.7488608">
        <ele>33.3029</ele>
        <time>2012-03-12T14:27:39Z</time>
      </trkpt>
      <trkpt lat="59.9725252" lon="17.7490256">
        <ele>32.8223</ele>
        <time>2012-03-12T14:27:46Z</time>
      </trkpt>
      <trkpt lat="59.9724739" lon="17.7491424">
        <ele>32.3416</ele>
        <time>2012-03-12T14:27:52Z</time>
      </trkpt>
      <trkpt lat="59.972449" lon="17.7492053">
        <ele>32.3416</ele>
        <time>2012-03-12T14:27:56Z</time>
      </trkpt>
      <trkpt lat="59.9723413" lon="17.7493996">
        <ele>30.4188</ele>
        <time>2012-03-12T14:28:03Z</time>
      </trkpt>
      <trkpt lat="59.9722908" lon="17.7495125">
        <ele>28.9769</ele>
        <time>2012-03-12T14:28:09Z</time>
      </trkpt>
      <trkpt lat="59.9722527" lon="17.7495907">
        <ele>28.0155</ele>
        <time>2012-03-12T14:28:13Z</time>
      </trkpt>
      <trkpt lat="59.9721859" lon="17.7497601">
        <ele>27.5349</ele>
        <time>2012-03-12T14:28:20Z</time>
      </trkpt>
      <trkpt lat="59.9721142" lon="17.7499305">
        <ele>27.5349</ele>
        <time>2012-03-12T14:28:27Z</time>
      </trkpt>
      <trkpt lat="59.9721018" lon="17.7499605">
        <ele>27.5349</ele>
        <time>2012-03-12T14:28:28Z</time>
      </trkpt>
      <trkpt lat="59.9720158" lon="17.7501424">
        <ele>26.0929</ele>
        <time>2012-03-12T14:28:35Z</time>
      </trkpt>
      <trkpt lat="59.9719565" lon="17.7502931">
        <ele>26.0929</ele>
        <time>2012-03-12T14:28:41Z</time>
      </trkpt>
      <trkpt lat="59.9718911" lon="17.750447">
        <ele>27.5349</ele>
        <time>2012-03-12T14:28:47Z</time>
      </trkpt>
      <trkpt lat="59.971844" lon="17.7505292">
        <ele>28.0155</ele>
        <time>2012-03-12T14:28:51Z</time>
      </trkpt>
      <trkpt lat="59.9718044" lon="17.7506019">
        <ele>27.5349</ele>
        <time>2012-03-12T14:28:55Z</time>
      </trkpt>
      <trkpt lat="59.9717652" lon="17.7507224">
        <ele>29.9381</ele>
        <time>2012-03-12T14:29:00Z</time>
      </trkpt>
      <trkpt lat="59.9717467" lon="17.7507599">
        <ele>30.4188</ele>
        <time>2012-03-12T14:29:02Z</time>
      </trkpt>
      <trkpt lat="59.9717048" lon="17.7508821">
        <ele>31.8607</ele>
        <time>2012-03-12T14:29:08Z</time>
      </trkpt>
      <trkpt lat="59.9716571" lon="17.7510002">
        <ele>33.7834</ele>
        <time>2012-03-12T14:29:13Z</time>
      </trkpt>
      <trkpt lat="59.9716319" lon="17.7510291">
        <ele>34.7449</ele>
        <time>2012-03-12T14:29:15Z</time>
      </trkpt>
      <trkpt lat="59.9715825" lon="17.7510986">
        <ele>36.6675</ele>
        <time>2012-03-12T14:29:20Z</time>
      </trkpt>
      <trkpt lat="59.971556" lon="17.7511235">
        <ele>36.6675</ele>
        <time>2012-03-12T14:29:22Z</time>
      </trkpt>
      <trkpt lat="59.9714801" lon="17.7512122">
        <ele>39.5513</ele>
        <time>2012-03-12T14:29:28Z</time>
      </trkpt>
      <trkpt lat="59.971395" lon="17.7513072">
        <ele>40.5128</ele>
        <time>2012-03-12T14:29:34Z</time>
      </trkpt>
      <trkpt lat="59.9713672" lon="17.7513399">
        <ele>40.5128</ele>
        <time>2012-03-12T14:29:36Z</time>
      </trkpt>
      <trkpt lat="59.9712927" lon="17.7514173">
        <ele>40.0321</ele>
        <time>2012-03-12T14:29:42Z</time>
      </trkpt>
      <trkpt lat="59.97125" lon="17.7514574">
        <ele>40.5128</ele>
        <time>2012-03-12T14:29:45Z</time>
      </trkpt>
      <trkpt lat="59.9711759" lon="17.7515534">
        <ele>39.5513</ele>
        <time>2012-03-12T14:29:51Z</time>
      </trkpt>
      <trkpt lat="59.9710907" lon="17.7516348">
        <ele>38.5901</ele>
        <time>2012-03-12T14:29:56Z</time>
      </trkpt>
      <trkpt lat="59.9710436" lon="17.7516726">
        <ele>39.0707</ele>
        <time>2012-03-12T14:30:00Z</time>
      </trkpt>
      <trkpt lat="59.9709608" lon="17.751784">
        <ele>38.1094</ele>
        <time>2012-03-12T14:30:07Z</time>
      </trkpt>
      <trkpt lat="59.9708857" lon="17.7519083">
        <ele>37.1481</ele>
        <time>2012-03-12T14:30:14Z</time>
      </trkpt>
      <trkpt lat="59.9708122" lon="17.7520303">
        <ele>35.7061</ele>
        <time>2012-03-12T14:30:20Z</time>
      </trkpt>
      <trkpt lat="59.9707412" lon="17.7521694">
        <ele>35.7061</ele>
        <time>2012-03-12T14:30:26Z</time>
      </trkpt>
      <trkpt lat="59.9706298" lon="17.7523922">
        <ele>34.7449</ele>
        <time>2012-03-12T14:30:35Z</time>
      </trkpt>
      <trkpt lat="59.9705599" lon="17.7525645">
        <ele>34.7449</ele>
        <time>2012-03-12T14:30:41Z</time>
      </trkpt>
      <trkpt lat="59.9705179" lon="17.7526392">
        <ele>34.7449</ele>
        <time>2012-03-12T14:30:44Z</time>
      </trkpt>
      <trkpt lat="59.9704128" lon="17.7528884">
        <ele>33.7834</ele>
        <time>2012-03-12T14:30:53Z</time>
      </trkpt>
      <trkpt lat="59.9703307" lon="17.7530873">
        <ele>31.8607</ele>
        <time>2012-03-12T14:31:00Z</time>
      </trkpt>
      <trkpt lat="59.9702552" lon="17.7532959">
        <ele>29.9381</ele>
        <time>2012-03-12T14:31:08Z</time>
      </trkpt>
      <trkpt lat="59.970173" lon="17.7535136">
        <ele>28.4962</ele>
        <time>2012-03-12T14:31:16Z</time>
      </trkpt>
      <trkpt lat="59.9700999" lon="17.7536647">
        <ele>27.0543</ele>
        <time>2012-03-12T14:31:22Z</time>
      </trkpt>
      <trkpt lat="59.9700279" lon="17.7538351">
        <ele>26.0929</ele>
        <time>2012-03-12T14:31:29Z</time>
      </trkpt>
      <trkpt lat="59.9699486" lon="17.7540191">
        <ele>25.1317</ele>
        <time>2012-03-12T14:31:37Z</time>
      </trkpt>
      <trkpt lat="59.9698757" lon="17.754173">
        <ele>25.1317</ele>
        <time>2012-03-12T14:31:44Z</time>
      </trkpt>
      <trkpt lat="59.9697972" lon="17.7543461">
        <ele>26.0929</ele>
        <time>2012-03-12T14:31:52Z</time>
      </trkpt>
      <trkpt lat="59.9697227" lon="17.7545128">
        <ele>26.5736</ele>
        <time>2012-03-12T14:31:59Z</time>
      </trkpt>
      <trkpt lat="59.9696314" lon="17.7546948">
        <ele>26.0929</ele>
        <time>2012-03-12T14:32:07Z</time>
      </trkpt>
      <trkpt lat="59.9695267" lon="17.7549071">
        <ele>25.6123</ele>
        <time>2012-03-12T14:32:16Z</time>
      </trkpt>
      <trkpt lat="59.9694384" lon="17.755092">
        <ele>25.1317</ele>
        <time>2012-03-12T14:32:24Z</time>
      </trkpt>
      <trkpt lat="59.9693807" lon="17.7552313">
        <ele>23.6896</ele>
        <time>2012-03-12T14:32:30Z</time>
      </trkpt>
      <trkpt lat="59.9693042" lon="17.75538">
        <ele>23.6896</ele>
        <time>2012-03-12T14:32:37Z</time>
      </trkpt>
      <trkpt lat="59.9692871" lon="17.7554235">
        <ele>23.6896</ele>
        <time>2012-03-12T14:32:39Z</time>
      </trkpt>
      <trkpt lat="59.9692354" lon="17.7555426">
        <ele>24.651</ele>
        <time>2012-03-12T14:32:44Z</time>
      </trkpt>
      <trkpt lat="59.9692144" lon="17.7555887">
        <ele>24.651</ele>
        <time>2012-03-12T14:32:46Z</time>
      </trkpt>
      <trkpt lat="59.9691203" lon="17.7558054">
        <ele>26.5736</ele>
        <time>2012-03-12T14:32:55Z</time>
      </trkpt>
      <trkpt lat="59.9690404" lon="17.7559659">
        <ele>27.5349</ele>
        <time>2012-03-12T14:33:02Z</time>
      </trkpt>
      <trkpt lat="59.9689452" lon="17.7561413">
        <ele>28.0155</ele>
        <time>2012-03-12T14:33:10Z</time>
      </trkpt>
      <trkpt lat="59.9688668" lon="17.7562953">
        <ele>28.0155</ele>
        <time>2012-03-12T14:33:17Z</time>
      </trkpt>
      <trkpt lat="59.96884" lon="17.7563685">
        <ele>28.4962</ele>
        <time>2012-03-12T14:33:20Z</time>
      </trkpt>
      <trkpt lat="59.9687269" lon="17.7565616">
        <ele>29.4575</ele>
        <time>2012-03-12T14:33:30Z</time>
      </trkpt>
      <trkpt lat="59.9686554" lon="17.7566995">
        <ele>30.4188</ele>
        <time>2012-03-12T14:33:36Z</time>
      </trkpt>
      <trkpt lat="59.9685878" lon="17.7568449">
        <ele>31.3801</ele>
        <time>2012-03-12T14:33:43Z</time>
      </trkpt>
      <trkpt lat="59.9685327" lon="17.7569388">
        <ele>32.3416</ele>
        <time>2012-03-12T14:33:49Z</time>
      </trkpt>
      <trkpt lat="59.9684817" lon="17.7570269">
        <ele>33.3029</ele>
        <time>2012-03-12T14:33:54Z</time>
      </trkpt>
      <trkpt lat="59.9684225" lon="17.7571231">
        <ele>33.7834</ele>
        <time>2012-03-12T14:34:00Z</time>
      </trkpt>
      <trkpt lat="59.9683542" lon="17.7572232">
        <ele>33.7834</ele>
        <time>2012-03-12T14:34:06Z</time>
      </trkpt>
      <trkpt lat="59.9683153" lon="17.7572868">
        <ele>33.3029</ele>
        <time>2012-03-12T14:34:11Z</time>
      </trkpt>
      <trkpt lat="59.9682361" lon="17.7574178">
        <ele>33.3029</ele>
        <time>2012-03-12T14:34:17Z</time>
      </trkpt>
      <trkpt lat="59.9681687" lon="17.7575478">
        <ele>33.3029</ele>
        <time>2012-03-12T14:34:23Z</time>
      </trkpt>
      <trkpt lat="59.9680628" lon="17.7576793">
        <ele>32.8223</ele>
        <time>2012-03-12T14:34:30Z</time>
      </trkpt>
      <trkpt lat="59.9679548" lon="17.7577856">
        <ele>33.3029</ele>
        <time>2012-03-12T14:34:36Z</time>
      </trkpt>
      <trkpt lat="59.96789" lon="17.7578458">
        <ele>33.3029</ele>
        <time>2012-03-12T14:34:40Z</time>
      </trkpt>
      <trkpt lat="59.9678047" lon="17.7579353">
        <ele>34.2642</ele>
        <time>2012-03-12T14:34:48Z</time>
      </trkpt>
      <trkpt lat="59.9677185" lon="17.7580142">
        <ele>34.7449</ele>
        <time>2012-03-12T14:34:54Z</time>
      </trkpt>
      <trkpt lat="59.9676669" lon="17.7580581">
        <ele>35.2255</ele>
        <time>2012-03-12T14:34:58Z</time>
      </trkpt>
      <trkpt lat="59.9675571" lon="17.7581507">
        <ele>34.2642</ele>
        <time>2012-03-12T14:35:06Z</time>
      </trkpt>
      <trkpt lat="59.9674905" lon="17.7582032">
        <ele>35.7061</ele>
        <time>2012-03-12T14:35:12Z</time>
      </trkpt>
      <trkpt lat="59.9674345" lon="17.7582592">
        <ele>36.6675</ele>
        <time>2012-03-12T14:35:17Z</time>
      </trkpt>
      <trkpt lat="59.9673668" lon="17.7583102">
        <ele>36.6675</ele>
        <time>2012-03-12T14:35:22Z</time>
      </trkpt>
      <trkpt lat="59.9672806" lon="17.7583604">
        <ele>36.6675</ele>
        <time>2012-03-12T14:35:27Z</time>
      </trkpt>
      <trkpt lat="59.9671902" lon="17.7584305">
        <ele>36.1868</ele>
        <time>2012-03-12T14:35:33Z</time>
      </trkpt>
      <trkpt lat="59.9671291" lon="17.7584746">
        <ele>36.6675</ele>
        <time>2012-03-12T14:35:37Z</time>
      </trkpt>
      <trkpt lat="59.9670513" lon="17.758541">
        <ele>36.6675</ele>
        <time>2012-03-12T14:35:42Z</time>
      </trkpt>
      <trkpt lat="59.9669732" lon="17.758608">
        <ele>37.1481</ele>
        <time>2012-03-12T14:35:47Z</time>
      </trkpt>
      <trkpt lat="59.9668592" lon="17.7587139">
        <ele>36.1868</ele>
        <time>2012-03-12T14:35:54Z</time>
      </trkpt>
      <trkpt lat="59.9667692" lon="17.7588103">
        <ele>37.1481</ele>
        <time>2012-03-12T14:36:00Z</time>
      </trkpt>
      <trkpt lat="59.9666903" lon="17.7588905">
        <ele>37.1481</ele>
        <time>2012-03-12T14:36:05Z</time>
      </trkpt>
      <trkpt lat="59.9665945" lon="17.7590103">
        <ele>38.1094</ele>
        <time>2012-03-12T14:36:12Z</time>
      </trkpt>
      <trkpt lat="59.9665821" lon="17.7590258">
        <ele>38.5901</ele>
        <time>2012-03-12T14:36:13Z</time>
      </trkpt>
      <trkpt lat="59.9665301" lon="17.7591017">
        <ele>38.5901</ele>
        <time>2012-03-12T14:36:17Z</time>
      </trkpt>
      <trkpt lat="59.966482" lon="17.759181">
        <ele>38.5901</ele>
        <time>2012-03-12T14:36:22Z</time>
      </trkpt>
      <trkpt lat="59.9663872" lon="17.759332">
        <ele>40.5128</ele>
        <time>2012-03-12T14:36:29Z</time>
      </trkpt>
      <trkpt lat="59.9663645" lon="17.7593786">
        <ele>40.9934</ele>
        <time>2012-03-12T14:36:31Z</time>
      </trkpt>
      <trkpt lat="59.966319" lon="17.7594609">
        <ele>40.9934</ele>
        <time>2012-03-12T14:36:35Z</time>
      </trkpt>
      <trkpt lat="59.9662457" lon="17.7595922">
        <ele>41.474</ele>
        <time>2012-03-12T14:36:41Z</time>
      </trkpt>
      <trkpt lat="59.9661867" lon="17.7597188">
        <ele>40.0321</ele>
        <time>2012-03-12T14:36:47Z</time>
      </trkpt>
      <trkpt lat="59.9661177" lon="17.759853">
        <ele>40.0321</ele>
        <time>2012-03-12T14:36:53Z</time>
      </trkpt>
      <trkpt lat="59.9660383" lon="17.7600079">
        <ele>40.0321</ele>
        <time>2012-03-12T14:36:59Z</time>
      </trkpt>
      <trkpt lat="59.9660071" lon="17.7600597">
        <ele>39.5513</ele>
        <time>2012-03-12T14:37:02Z</time>
      </trkpt>
      <trkpt lat="59.9659682" lon="17.7601913">
        <ele>39.5513</ele>
        <time>2012-03-12T14:37:08Z</time>
      </trkpt>
      <trkpt lat="59.9658844" lon="17.7602959">
        <ele>40.0321</ele>
        <time>2012-03-12T14:37:14Z</time>
      </trkpt>
      <trkpt lat="59.9658546" lon="17.7603249">
        <ele>40.0321</ele>
        <time>2012-03-12T14:37:16Z</time>
      </trkpt>
      <trkpt lat="59.9657724" lon="17.7604342">
        <ele>40.9934</ele>
        <time>2012-03-12T14:37:22Z</time>
      </trkpt>
      <trkpt lat="59.9657572" lon="17.7604544">
        <ele>40.9934</ele>
        <time>2012-03-12T14:37:23Z</time>
      </trkpt>
      <trkpt lat="59.9656801" lon="17.7605671">
        <ele>40.0321</ele>
        <time>2012-03-12T14:37:27Z</time>
      </trkpt>
      <trkpt lat="59.9656693" lon="17.7606">
        <ele>40.5128</ele>
        <time>2012-03-12T14:37:29Z</time>
      </trkpt>
      <trkpt lat="59.965643" lon="17.7606724">
        <ele>40.9934</ele>
        <time>2012-03-12T14:37:34Z</time>
      </trkpt>
      <trkpt lat="59.9655382" lon="17.7608408">
        <ele>38.1094</ele>
        <time>2012-03-12T14:37:41Z</time>
      </trkpt>
      <trkpt lat="59.9655223" lon="17.7608669">
        <ele>37.1481</ele>
        <time>2012-03-12T14:37:42Z</time>
      </trkpt>
      <trkpt lat="59.965441" lon="17.7610258">
        <ele>33.7834</ele>
        <time>2012-03-12T14:37:48Z</time>
      </trkpt>
      <trkpt lat="59.9653685" lon="17.7612106">
        <ele>30.8995</ele>
        <time>2012-03-12T14:37:54Z</time>
      </trkpt>
      <trkpt lat="59.9653163" lon="17.7613473">
        <ele>29.4575</ele>
        <time>2012-03-12T14:37:59Z</time>
      </trkpt>
      <trkpt lat="59.965259" lon="17.7614978">
        <ele>28.0155</ele>
        <time>2012-03-12T14:38:04Z</time>
      </trkpt>
      <trkpt lat="59.9652506" lon="17.7615246">
        <ele>28.0155</ele>
        <time>2012-03-12T14:38:05Z</time>
      </trkpt>
      <trkpt lat="59.9652269" lon="17.7615703">
        <ele>27.5349</ele>
        <time>2012-03-12T14:38:07Z</time>
      </trkpt>
      <trkpt lat="59.9651917" lon="17.7616625">
        <ele>27.0543</ele>
        <time>2012-03-12T14:38:11Z</time>
      </trkpt>
      <trkpt lat="59.9650683" lon="17.7618936">
        <ele>27.5349</ele>
        <time>2012-03-12T14:38:22Z</time>
      </trkpt>
      <trkpt lat="59.9650575" lon="17.7619146">
        <ele>28.0155</ele>
        <time>2012-03-12T14:38:23Z</time>
      </trkpt>
      <trkpt lat="59.9650063" lon="17.7618813">
        <ele>26.5736</ele>
        <time>2012-03-12T14:38:27Z</time>
      </trkpt>
      <trkpt lat="59.9650211" lon="17.76183">
        <ele>26.0929</ele>
        <time>2012-03-12T14:38:29Z</time>
      </trkpt>
      <trkpt lat="59.9651007" lon="17.7616438">
        <ele>24.1703</ele>
        <time>2012-03-12T14:38:38Z</time>
      </trkpt>
      <trkpt lat="59.9651705" lon="17.7614506">
        <ele>25.1317</ele>
        <time>2012-03-12T14:38:46Z</time>
      </trkpt>
      <trkpt lat="59.9652651" lon="17.7612116">
        <ele>24.651</ele>
        <time>2012-03-12T14:38:56Z</time>
      </trkpt>
      <trkpt lat="59.965348" lon="17.7610035">
        <ele>24.1703</ele>
        <time>2012-03-12T14:39:05Z</time>
      </trkpt>
      <trkpt lat="59.9654189" lon="17.7608806">
        <ele>23.6896</ele>
        <time>2012-03-12T14:39:11Z</time>
      </trkpt>
      <trkpt lat="59.9655206" lon="17.7607099">
        <ele>23.209</ele>
        <time>2012-03-12T14:39:20Z</time>
      </trkpt>
      <trkpt lat="59.9656263" lon="17.7605514">
        <ele>22.2476</ele>
        <time>2012-03-12T14:39:29Z</time>
      </trkpt>
      <trkpt lat="59.9657361" lon="17.7603955">
        <ele>20.325</ele>
        <time>2012-03-12T14:39:38Z</time>
      </trkpt>
      <trkpt lat="59.9658185" lon="17.7602537">
        <ele>19.8444</ele>
        <time>2012-03-12T14:39:46Z</time>
      </trkpt>
      <trkpt lat="59.9659086" lon="17.760118">
        <ele>18.4023</ele>
        <time>2012-03-12T14:39:54Z</time>
      </trkpt>
      <trkpt lat="59.9659988" lon="17.7599519">
        <ele>17.9218</ele>
        <time>2012-03-12T14:40:02Z</time>
      </trkpt>
      <trkpt lat="59.9661035" lon="17.7597681">
        <ele>17.9218</ele>
        <time>2012-03-12T14:40:11Z</time>
      </trkpt>
      <trkpt lat="59.9661908" lon="17.7596386">
        <ele>16.4797</ele>
        <time>2012-03-12T14:40:18Z</time>
      </trkpt>
      <trkpt lat="59.9662866" lon="17.7594717">
        <ele>16.9604</ele>
        <time>2012-03-12T14:40:26Z</time>
      </trkpt>
      <trkpt lat="59.9664062" lon="17.7592832">
        <ele>16.9604</ele>
        <time>2012-03-12T14:40:36Z</time>
      </trkpt>
      <trkpt lat="59.9665484" lon="17.7591014">
        <ele>16.9604</ele>
        <time>2012-03-12T14:40:47Z</time>
      </trkpt>
      <trkpt lat="59.9666731" lon="17.7589753">
        <ele>17.4412</ele>
        <time>2012-03-12T14:40:56Z</time>
      </trkpt>
      <trkpt lat="59.9667955" lon="17.7588536">
        <ele>19.3638</ele>
        <time>2012-03-12T14:41:05Z</time>
      </trkpt>
      <trkpt lat="59.9669061" lon="17.7587564">
        <ele>19.8444</ele>
        <time>2012-03-12T14:41:13Z</time>
      </trkpt>
      <trkpt lat="59.9670011" lon="17.7586721">
        <ele>19.3638</ele>
        <time>2012-03-12T14:41:20Z</time>
      </trkpt>
      <trkpt lat="59.9671077" lon="17.7585979">
        <ele>16.4797</ele>
        <time>2012-03-12T14:41:27Z</time>
      </trkpt>
      <trkpt lat="59.967191" lon="17.7585066">
        <ele>16.4797</ele>
        <time>2012-03-12T14:41:33Z</time>
      </trkpt>
      <trkpt lat="59.9672943" lon="17.7584014">
        <ele>18.4023</ele>
        <time>2012-03-12T14:41:41Z</time>
      </trkpt>
      <trkpt lat="59.9674242" lon="17.7582953">
        <ele>18.8831</ele>
        <time>2012-03-12T14:41:50Z</time>
      </trkpt>
      <trkpt lat="59.9675632" lon="17.7581726">
        <ele>18.4023</ele>
        <time>2012-03-12T14:41:59Z</time>
      </trkpt>
      <trkpt lat="59.9676778" lon="17.7580415">
        <ele>18.8831</ele>
        <time>2012-03-12T14:42:07Z</time>
      </trkpt>
      <trkpt lat="59.9677813" lon="17.7578831">
        <ele>20.8057</ele>
        <time>2012-03-12T14:42:15Z</time>
      </trkpt>
      <trkpt lat="59.9679029" lon="17.7576893">
        <ele>25.6123</ele>
        <time>2012-03-12T14:42:25Z</time>
      </trkpt>
      <trkpt lat="59.9680204" lon="17.757537">
        <ele>26.5736</ele>
        <time>2012-03-12T14:42:34Z</time>
      </trkpt>
      <trkpt lat="59.9681242" lon="17.757393">
        <ele>27.5349</ele>
        <time>2012-03-12T14:42:42Z</time>
      </trkpt>
      <trkpt lat="59.9682056" lon="17.7572675">
        <ele>28.4962</ele>
        <time>2012-03-12T14:42:49Z</time>
      </trkpt>
      <trkpt lat="59.9683081" lon="17.7571172">
        <ele>28.4962</ele>
        <time>2012-03-12T14:42:57Z</time>
      </trkpt>
      <trkpt lat="59.9683434" lon="17.757062">
        <ele>28.9769</ele>
        <time>2012-03-12T14:43:00Z</time>
      </trkpt>
      <trkpt lat="59.9684614" lon="17.7568812">
        <ele>29.4575</ele>
        <time>2012-03-12T14:43:09Z</time>
      </trkpt>
      <trkpt lat="59.968564" lon="17.7567087">
        <ele>30.4188</ele>
        <time>2012-03-12T14:43:17Z</time>
      </trkpt>
      <trkpt lat="59.9686837" lon="17.7564899">
        <ele>30.8995</ele>
        <time>2012-03-12T14:43:27Z</time>
      </trkpt>
      <trkpt lat="59.9687927" lon="17.7563234">
        <ele>29.9381</ele>
        <time>2012-03-12T14:43:35Z</time>
      </trkpt>
      <trkpt lat="59.9688969" lon="17.7561462">
        <ele>29.4575</ele>
        <time>2012-03-12T14:43:43Z</time>
      </trkpt>
      <trkpt lat="59.9689707" lon="17.7559689">
        <ele>29.4575</ele>
        <time>2012-03-12T14:43:50Z</time>
      </trkpt>
      <trkpt lat="59.9690638" lon="17.7557814">
        <ele>28.9769</ele>
        <time>2012-03-12T14:43:58Z</time>
      </trkpt>
      <trkpt lat="59.9691793" lon="17.7555638">
        <ele>28.4962</ele>
        <time>2012-03-12T14:44:08Z</time>
      </trkpt>
      <trkpt lat="59.9692726" lon="17.7553501">
        <ele>28.4962</ele>
        <time>2012-03-12T14:44:17Z</time>
      </trkpt>
      <trkpt lat="59.9693897" lon="17.7550758">
        <ele>28.0155</ele>
        <time>2012-03-12T14:44:28Z</time>
      </trkpt>
      <trkpt lat="59.9695048" lon="17.7548402">
        <ele>26.5736</ele>
        <time>2012-03-12T14:44:38Z</time>
      </trkpt>
      <trkpt lat="59.9696077" lon="17.7546277">
        <ele>27.0543</ele>
        <time>2012-03-12T14:44:47Z</time>
      </trkpt>
      <trkpt lat="59.9697062" lon="17.7544305">
        <ele>28.0155</ele>
        <time>2012-03-12T14:44:56Z</time>
      </trkpt>
      <trkpt lat="59.9698046" lon="17.7542356">
        <ele>27.0543</ele>
        <time>2012-03-12T14:45:05Z</time>
      </trkpt>
      <trkpt lat="59.9698621" lon="17.7541006">
        <ele>27.0543</ele>
        <time>2012-03-12T14:45:11Z</time>
      </trkpt>
      <trkpt lat="59.9699622" lon="17.7539009">
        <ele>27.5349</ele>
        <time>2012-03-12T14:45:20Z</time>
      </trkpt>
      <trkpt lat="59.9700351" lon="17.7537392">
        <ele>26.0929</ele>
        <time>2012-03-12T14:45:27Z</time>
      </trkpt>
      <trkpt lat="59.970095" lon="17.7535846">
        <ele>26.5736</ele>
        <time>2012-03-12T14:45:33Z</time>
      </trkpt>
      <trkpt lat="59.970131" lon="17.7534865">
        <ele>26.5736</ele>
        <time>2012-03-12T14:45:37Z</time>
      </trkpt>
      <trkpt lat="59.9701812" lon="17.7533608">
        <ele>26.5736</ele>
        <time>2012-03-12T14:45:42Z</time>
      </trkpt>
      <trkpt lat="59.9702649" lon="17.7531261">
        <ele>27.0543</ele>
        <time>2012-03-12T14:45:51Z</time>
      </trkpt>
      <trkpt lat="59.9703817" lon="17.752813">
        <ele>27.0543</ele>
        <time>2012-03-12T14:46:03Z</time>
      </trkpt>
      <trkpt lat="59.9704812" lon="17.7525569">
        <ele>26.5736</ele>
        <time>2012-03-12T14:46:13Z</time>
      </trkpt>
      <trkpt lat="59.9705459" lon="17.7524098">
        <ele>26.5736</ele>
        <time>2012-03-12T14:46:19Z</time>
      </trkpt>
      <trkpt lat="59.9705907" lon="17.7523241">
        <ele>27.0543</ele>
        <time>2012-03-12T14:46:23Z</time>
      </trkpt>
      <trkpt lat="59.9706562" lon="17.7522076">
        <ele>27.0543</ele>
        <time>2012-03-12T14:46:28Z</time>
      </trkpt>
      <trkpt lat="59.970733" lon="17.7520585">
        <ele>26.5736</ele>
        <time>2012-03-12T14:46:35Z</time>
      </trkpt>
      <trkpt lat="59.9708401" lon="17.7519245">
        <ele>25.6123</ele>
        <time>2012-03-12T14:46:43Z</time>
      </trkpt>
      <trkpt lat="59.970926" lon="17.7517813">
        <ele>27.5349</ele>
        <time>2012-03-12T14:46:50Z</time>
      </trkpt>
      <trkpt lat="59.9710296" lon="17.7516361">
        <ele>27.5349</ele>
        <time>2012-03-12T14:46:58Z</time>
      </trkpt>
      <trkpt lat="59.9711385" lon="17.7514985">
        <ele>28.4962</ele>
        <time>2012-03-12T14:47:06Z</time>
      </trkpt>
      <trkpt lat="59.9712724" lon="17.7513426">
        <ele>26.5736</ele>
        <time>2012-03-12T14:47:16Z</time>
      </trkpt>
      <trkpt lat="59.9713519" lon="17.7512369">
        <ele>26.5736</ele>
        <time>2012-03-12T14:47:22Z</time>
      </trkpt>
      <trkpt lat="59.9714192" lon="17.7511459">
        <ele>27.0543</ele>
        <time>2012-03-12T14:47:27Z</time>
      </trkpt>
      <trkpt lat="59.9715138" lon="17.7510379">
        <ele>28.0155</ele>
        <time>2012-03-12T14:47:34Z</time>
      </trkpt>
      <trkpt lat="59.9715843" lon="17.7509282">
        <ele>28.9769</ele>
        <time>2012-03-12T14:47:40Z</time>
      </trkpt>
      <trkpt lat="59.9716583" lon="17.7508016">
        <ele>29.9381</ele>
        <time>2012-03-12T14:47:46Z</time>
      </trkpt>
      <trkpt lat="59.9717672" lon="17.7506159">
        <ele>29.9381</ele>
        <time>2012-03-12T14:47:55Z</time>
      </trkpt>
      <trkpt lat="59.9718414" lon="17.750459">
        <ele>30.4188</ele>
        <time>2012-03-12T14:48:02Z</time>
      </trkpt>
      <trkpt lat="59.9719444" lon="17.7502972">
        <ele>28.0155</ele>
        <time>2012-03-12T14:48:10Z</time>
      </trkpt>
      <trkpt lat="59.972014" lon="17.7501077">
        <ele>30.8995</ele>
        <time>2012-03-12T14:48:17Z</time>
      </trkpt>
      <trkpt lat="59.9720865" lon="17.7499451">
        <ele>29.9381</ele>
        <time>2012-03-12T14:48:25Z</time>
      </trkpt>
      <trkpt lat="59.9721719" lon="17.7497519">
        <ele>30.8995</ele>
        <time>2012-03-12T14:48:33Z</time>
      </trkpt>
      <trkpt lat="59.9722522" lon="17.7495867">
        <ele>30.8995</ele>
        <time>2012-03-12T14:48:40Z</time>
      </trkpt>
      <trkpt lat="59.9722654" lon="17.7495648">
        <ele>30.8995</ele>
        <time>2012-03-12T14:48:41Z</time>
      </trkpt>
      <trkpt lat="59.9723376" lon="17.7494295">
        <ele>31.8607</ele>
        <time>2012-03-12T14:48:47Z</time>
      </trkpt>
      <trkpt lat="59.972391" lon="17.7492856">
        <ele>33.3029</ele>
        <time>2012-03-12T14:48:52Z</time>
      </trkpt>
      <trkpt lat="59.9724711" lon="17.7491507">
        <ele>32.3416</ele>
        <time>2012-03-12T14:48:58Z</time>
      </trkpt>
      <trkpt lat="59.9725439" lon="17.7490248">
        <ele>28.9769</ele>
        <time>2012-03-12T14:49:04Z</time>
      </trkpt>
      <trkpt lat="59.9725902" lon="17.7489406">
        <ele>28.0155</ele>
        <time>2012-03-12T14:49:08Z</time>
      </trkpt>
      <trkpt lat="59.9726276" lon="17.748765">
        <ele>29.4575</ele>
        <time>2012-03-12T14:49:14Z</time>
      </trkpt>
      <trkpt lat="59.9726495" lon="17.7487109">
        <ele>28.9769</ele>
        <time>2012-03-12T14:49:16Z</time>
      </trkpt>
      <trkpt lat="59.9726852" lon="17.7485862">
        <ele>31.3801</ele>
        <time>2012-03-12T14:49:20Z</time>
      </trkpt>
      <trkpt lat="59.9727881" lon="17.7483856">
        <ele>29.4575</ele>
        <time>2012-03-12T14:49:28Z</time>
      </trkpt>
      <trkpt lat="59.9728759" lon="17.7482304">
        <ele>27.5349</ele>
        <time>2012-03-12T14:49:35Z</time>
      </trkpt>
      <trkpt lat="59.9729418" lon="17.7480977">
        <ele>28.9769</ele>
        <time>2012-03-12T14:49:41Z</time>
      </trkpt>
      <trkpt lat="59.9730188" lon="17.7479906">
        <ele>29.4575</ele>
        <time>2012-03-12T14:49:47Z</time>
      </trkpt>
      <trkpt lat="59.9731234" lon="17.7478382">
        <ele>29.9381</ele>
        <time>2012-03-12T14:49:56Z</time>
      </trkpt>
      <trkpt lat="59.9732452" lon="17.7476818">
        <ele>29.9381</ele>
        <time>2012-03-12T14:50:05Z</time>
      </trkpt>
      <trkpt lat="59.9733095" lon="17.7476005">
        <ele>29.9381</ele>
        <time>2012-03-12T14:50:10Z</time>
      </trkpt>
      <trkpt lat="59.9734633" lon="17.7474741">
        <ele>29.4575</ele>
        <time>2012-03-12T14:50:20Z</time>
      </trkpt>
      <trkpt lat="59.9735638" lon="17.7473651">
        <ele>29.9381</ele>
        <time>2012-03-12T14:50:27Z</time>
      </trkpt>
      <trkpt lat="59.973632" lon="17.747273">
        <ele>29.4575</ele>
        <time>2012-03-12T14:50:33Z</time>
      </trkpt>
      <trkpt lat="59.9737038" lon="17.7471866">
        <ele>30.8995</ele>
        <time>2012-03-12T14:50:38Z</time>
      </trkpt>
      <trkpt lat="59.9738255" lon="17.7470323">
        <ele>32.3416</ele>
        <time>2012-03-12T14:50:46Z</time>
      </trkpt>
      <trkpt lat="59.9739243" lon="17.7469163">
        <ele>32.3416</ele>
        <time>2012-03-12T14:50:53Z</time>
      </trkpt>
      <trkpt lat="59.9740217" lon="17.7468067">
        <ele>33.7834</ele>
        <time>2012-03-12T14:51:00Z</time>
      </trkpt>
      <trkpt lat="59.9740745" lon="17.7467328">
        <ele>34.2642</ele>
        <time>2012-03-12T14:51:04Z</time>
      </trkpt>
      <trkpt lat="59.974205" lon="17.7465447">
        <ele>35.2255</ele>
        <time>2012-03-12T14:51:14Z</time>
      </trkpt>
      <trkpt lat="59.9743145" lon="17.7464076">
        <ele>33.7834</ele>
        <time>2012-03-12T14:51:22Z</time>
      </trkpt>
      <trkpt lat="59.9744123" lon="17.74629">
        <ele>33.3029</ele>
        <time>2012-03-12T14:51:29Z</time>
      </trkpt>
      <trkpt lat="59.9745041" lon="17.7461563">
        <ele>33.3029</ele>
        <time>2012-03-12T14:51:36Z</time>
      </trkpt>
      <trkpt lat="59.9745913" lon="17.7460051">
        <ele>33.7834</ele>
        <time>2012-03-12T14:51:43Z</time>
      </trkpt>
      <trkpt lat="59.9746949" lon="17.745803">
        <ele>34.7449</ele>
        <time>2012-03-12T14:51:52Z</time>
      </trkpt>
      <trkpt lat="59.9747845" lon="17.7456212">
        <ele>33.7834</ele>
        <time>2012-03-12T14:52:00Z</time>
      </trkpt>
      <trkpt lat="59.974865" lon="17.7454107">
        <ele>32.3416</ele>
        <time>2012-03-12T14:52:08Z</time>
      </trkpt>
      <trkpt lat="59.974935" lon="17.7451902">
        <ele>31.8607</ele>
        <time>2012-03-12T14:52:16Z</time>
      </trkpt>
      <trkpt lat="59.9749772" lon="17.7450287">
        <ele>31.8607</ele>
        <time>2012-03-12T14:52:22Z</time>
      </trkpt>
      <trkpt lat="59.975022" lon="17.7449131">
        <ele>32.3416</ele>
        <time>2012-03-12T14:52:27Z</time>
      </trkpt>
      <trkpt lat="59.9750448" lon="17.744893">
        <ele>31.8607</ele>
        <time>2012-03-12T14:52:35Z</time>
      </trkpt>
      <trkpt lat="59.97508" lon="17.7447746">
        <ele>32.3416</ele>
        <time>2012-03-12T14:52:39Z</time>
      </trkpt>
      <trkpt lat="59.9751495" lon="17.7444865">
        <ele>31.3801</ele>
        <time>2012-03-12T14:52:49Z</time>
      </trkpt>
      <trkpt lat="59.9751945" lon="17.7443111">
        <ele>32.8223</ele>
        <time>2012-03-12T14:52:55Z</time>
      </trkpt>
      <trkpt lat="59.9752331" lon="17.7441319">
        <ele>32.8223</ele>
        <time>2012-03-12T14:53:01Z</time>
      </trkpt>
      <trkpt lat="59.9752674" lon="17.7438879">
        <ele>33.3029</ele>
        <time>2012-03-12T14:53:09Z</time>
      </trkpt>
      <trkpt lat="59.9753063" lon="17.7436221">
        <ele>33.7834</ele>
        <time>2012-03-12T14:53:17Z</time>
      </trkpt>
      <trkpt lat="59.9753581" lon="17.7433697">
        <ele>33.7834</ele>
        <time>2012-03-12T14:53:25Z</time>
      </trkpt>
      <trkpt lat="59.9754217" lon="17.7430927">
        <ele>35.2255</ele>
        <time>2012-03-12T14:53:34Z</time>
      </trkpt>
      <trkpt lat="59.9754839" lon="17.7428472">
        <ele>37.1481</ele>
        <time>2012-03-12T14:53:42Z</time>
      </trkpt>
      <trkpt lat="59.9755318" lon="17.7426671">
        <ele>38.1094</ele>
        <time>2012-03-12T14:53:48Z</time>
      </trkpt>
      <trkpt lat="59.97557" lon="17.7425046">
        <ele>37.1481</ele>
        <time>2012-03-12T14:53:54Z</time>
      </trkpt>
      <trkpt lat="59.9756146" lon="17.7423311">
        <ele>37.6287</ele>
        <time>2012-03-12T14:54:00Z</time>
      </trkpt>
      <trkpt lat="59.9756664" lon="17.7421237">
        <ele>38.1094</ele>
        <time>2012-03-12T14:54:07Z</time>
      </trkpt>
      <trkpt lat="59.9757252" lon="17.7419198">
        <ele>38.1094</ele>
        <time>2012-03-12T14:54:14Z</time>
      </trkpt>
      <trkpt lat="59.9757864" lon="17.7416846">
        <ele>38.1094</ele>
        <time>2012-03-12T14:54:22Z</time>
      </trkpt>
      <trkpt lat="59.9758529" lon="17.7414072">
        <ele>38.5901</ele>
        <time>2012-03-12T14:54:31Z</time>
      </trkpt>
      <trkpt lat="59.9759183" lon="17.7411269">
        <ele>39.5513</ele>
        <time>2012-03-12T14:54:40Z</time>
      </trkpt>
      <trkpt lat="59.975978" lon="17.7408856">
        <ele>40.5128</ele>
        <time>2012-03-12T14:54:48Z</time>
      </trkpt>
      <trkpt lat="59.9760529" lon="17.7405974">
        <ele>40.9934</ele>
        <time>2012-03-12T14:54:58Z</time>
      </trkpt>
      <trkpt lat="59.9761226" lon="17.7404174">
        <ele>40.0321</ele>
        <time>2012-03-12T14:55:05Z</time>
      </trkpt>
      <trkpt lat="59.9761901" lon="17.7402006">
        <ele>37.1481</ele>
        <time>2012-03-12T14:55:13Z</time>
      </trkpt>
      <trkpt lat="59.9762492" lon="17.7400426">
        <ele>35.7061</ele>
        <time>2012-03-12T14:55:19Z</time>
      </trkpt>
      <trkpt lat="59.9762581" lon="17.7398459">
        <ele>33.7834</ele>
        <time>2012-03-12T14:55:26Z</time>
      </trkpt>
      <trkpt lat="59.9761899" lon="17.7397283">
        <ele>31.8607</ele>
        <time>2012-03-12T14:55:32Z</time>
      </trkpt>
      <trkpt lat="59.9760894" lon="17.7395886">
        <ele>28.0155</ele>
        <time>2012-03-12T14:55:39Z</time>
      </trkpt>
      <trkpt lat="59.9760196" lon="17.7394968">
        <ele>25.6123</ele>
        <time>2012-03-12T14:55:44Z</time>
      </trkpt>
      <trkpt lat="59.9759762" lon="17.7394567">
        <ele>25.1317</ele>
        <time>2012-03-12T14:55:47Z</time>
      </trkpt>
      <trkpt lat="59.975917" lon="17.7393889">
        <ele>25.6123</ele>
        <time>2012-03-12T14:55:51Z</time>
      </trkpt>
      <trkpt lat="59.9758363" lon="17.7392625">
        <ele>25.1317</ele>
        <time>2012-03-12T14:55:57Z</time>
      </trkpt>
      <trkpt lat="59.9757985" lon="17.7391622">
        <ele>23.6896</ele>
        <time>2012-03-12T14:56:01Z</time>
      </trkpt>
      <trkpt lat="59.9757518" lon="17.7390683">
        <ele>21.767</ele>
        <time>2012-03-12T14:56:05Z</time>
      </trkpt>
      <trkpt lat="59.9756994" lon="17.7389372">
        <ele>19.3638</ele>
        <time>2012-03-12T14:56:10Z</time>
      </trkpt>
      <trkpt lat="59.9756151" lon="17.73877">
        <ele>15.5184</ele>
        <time>2012-03-12T14:56:17Z</time>
      </trkpt>
      <trkpt lat="59.9755129" lon="17.7386026">
        <ele>15.0377</ele>
        <time>2012-03-12T14:56:24Z</time>
      </trkpt>
      <trkpt lat="59.9754167" lon="17.73844">
        <ele>15.0377</ele>
        <time>2012-03-12T14:56:31Z</time>
      </trkpt>
      <trkpt lat="59.9753212" lon="17.7382882">
        <ele>15.5184</ele>
        <time>2012-03-12T14:56:38Z</time>
      </trkpt>
      <trkpt lat="59.9752172" lon="17.7381239">
        <ele>16.4797</ele>
        <time>2012-03-12T14:56:46Z</time>
      </trkpt>
      <trkpt lat="59.9751205" lon="17.7379625">
        <ele>17.4412</ele>
        <time>2012-03-12T14:56:53Z</time>
      </trkpt>
      <trkpt lat="59.9750215" lon="17.737793">
        <ele>16.9604</ele>
        <time>2012-03-12T14:57:01Z</time>
      </trkpt>
      <trkpt lat="59.9749054" lon="17.7375807">
        <ele>17.4412</ele>
        <time>2012-03-12T14:57:11Z</time>
      </trkpt>
      <trkpt lat="59.9748345" lon="17.7374264">
        <ele>16.4797</ele>
        <time>2012-03-12T14:57:17Z</time>
      </trkpt>
      <trkpt lat="59.9747635" lon="17.7372569">
        <ele>16.4797</ele>
        <time>2012-03-12T14:57:24Z</time>
      </trkpt>
      <trkpt lat="59.9746971" lon="17.7370699">
        <ele>15.5184</ele>
        <time>2012-03-12T14:57:31Z</time>
      </trkpt>
      <trkpt lat="59.9746194" lon="17.7368632">
        <ele>15.5184</ele>
        <time>2012-03-12T14:57:39Z</time>
      </trkpt>
      <trkpt lat="59.9745595" lon="17.7366535">
        <ele>15.999</ele>
        <time>2012-03-12T14:57:46Z</time>
      </trkpt>
      <trkpt lat="59.9745092" lon="17.7364282">
        <ele>16.9604</ele>
        <time>2012-03-12T14:57:54Z</time>
      </trkpt>
      <trkpt lat="59.9744719" lon="17.7362806">
        <ele>16.9604</ele>
        <time>2012-03-12T14:57:59Z</time>
      </trkpt>
      <trkpt lat="59.9744314" lon="17.7360554">
        <ele>14.0764</ele>
        <time>2012-03-12T14:58:07Z</time>
      </trkpt>
      <trkpt lat="59.9744282" lon="17.7360245">
        <ele>13.5958</ele>
        <time>2012-03-12T14:58:08Z</time>
      </trkpt>
      <trkpt lat="59.9744091" lon="17.7358281">
        <ele>13.1151</ele>
        <time>2012-03-12T14:58:15Z</time>
      </trkpt>
      <trkpt lat="59.9743763" lon="17.7356231">
        <ele>13.1151</ele>
        <time>2012-03-12T14:58:22Z</time>
      </trkpt>
      <trkpt lat="59.9743714" lon="17.7355883">
        <ele>13.1151</ele>
        <time>2012-03-12T14:58:23Z</time>
      </trkpt>
      <trkpt lat="59.9743517" lon="17.7353594">
        <ele>13.5958</ele>
        <time>2012-03-12T14:58:30Z</time>
      </trkpt>
      <trkpt lat="59.9743377" lon="17.7351473">
        <ele>13.5958</ele>
        <time>2012-03-12T14:58:36Z</time>
      </trkpt>
      <trkpt lat="59.9743323" lon="17.7348776">
        <ele>12.6344</ele>
        <time>2012-03-12T14:58:44Z</time>
      </trkpt>
      <trkpt lat="59.974329" lon="17.7346483">
        <ele>11.6732</ele>
        <time>2012-03-12T14:58:51Z</time>
      </trkpt>
      <trkpt lat="59.9743263" lon="17.7343823">
        <ele>12.1538</ele>
        <time>2012-03-12T14:58:59Z</time>
      </trkpt>
      <trkpt lat="59.9743335" lon="17.7341422">
        <ele>13.1151</ele>
        <time>2012-03-12T14:59:06Z</time>
      </trkpt>
      <trkpt lat="59.9743433" lon="17.7338391">
        <ele>14.557</ele>
        <time>2012-03-12T14:59:15Z</time>
      </trkpt>
      <trkpt lat="59.9743418" lon="17.733706">
        <ele>15.0377</ele>
        <time>2012-03-12T14:59:19Z</time>
      </trkpt>
      <trkpt lat="59.974346" lon="17.7333687">
        <ele>16.9604</ele>
        <time>2012-03-12T14:59:29Z</time>
      </trkpt>
      <trkpt lat="59.9743438" lon="17.7330041">
        <ele>19.8444</ele>
        <time>2012-03-12T14:59:40Z</time>
      </trkpt>
      <trkpt lat="59.9743401" lon="17.7326647">
        <ele>22.7283</ele>
        <time>2012-03-12T14:59:50Z</time>
      </trkpt>
      <trkpt lat="59.9743268" lon="17.7323591">
        <ele>24.651</ele>
        <time>2012-03-12T14:59:59Z</time>
      </trkpt>
      <trkpt lat="59.9743145" lon="17.732039">
        <ele>26.0929</ele>
        <time>2012-03-12T15:00:09Z</time>
      </trkpt>
      <trkpt lat="59.9743127" lon="17.7316905">
        <ele>27.0543</ele>
        <time>2012-03-12T15:00:20Z</time>
      </trkpt>
      <trkpt lat="59.9743154" lon="17.731396">
        <ele>27.0543</ele>
        <time>2012-03-12T15:00:29Z</time>
      </trkpt>
      <trkpt lat="59.9743201" lon="17.7311302">
        <ele>27.0543</ele>
        <time>2012-03-12T15:00:37Z</time>
      </trkpt>
      <trkpt lat="59.9743393" lon="17.7309004">
        <ele>26.0929</ele>
        <time>2012-03-12T15:00:44Z</time>
      </trkpt>
      <trkpt lat="59.9743525" lon="17.7306735">
        <ele>26.0929</ele>
        <time>2012-03-12T15:00:51Z</time>
      </trkpt>
      <trkpt lat="59.9743688" lon="17.7304821">
        <ele>27.0543</ele>
        <time>2012-03-12T15:00:57Z</time>
      </trkpt>
      <trkpt lat="59.9743988" lon="17.7301168">
        <ele>28.4962</ele>
        <time>2012-03-12T15:01:08Z</time>
      </trkpt>
      <trkpt lat="59.9744259" lon="17.7297984">
        <ele>29.4575</ele>
        <time>2012-03-12T15:01:18Z</time>
      </trkpt>
      <trkpt lat="59.9744476" lon="17.7294742">
        <ele>28.4962</ele>
        <time>2012-03-12T15:01:28Z</time>
      </trkpt>
      <trkpt lat="59.9744465" lon="17.7291213">
        <ele>28.0155</ele>
        <time>2012-03-12T15:01:39Z</time>
      </trkpt>
      <trkpt lat="59.9744346" lon="17.7287582">
        <ele>26.5736</ele>
        <time>2012-03-12T15:01:51Z</time>
      </trkpt>
      <trkpt lat="59.9744245" lon="17.7285324">
        <ele>25.6123</ele>
        <time>2012-03-12T15:01:58Z</time>
      </trkpt>
      <trkpt lat="59.9744231" lon="17.7284625">
        <ele>25.1317</ele>
        <time>2012-03-12T15:02:00Z</time>
      </trkpt>
      <trkpt lat="59.9744196" lon="17.728243">
        <ele>23.6896</ele>
        <time>2012-03-12T15:02:07Z</time>
      </trkpt>
      <trkpt lat="59.9744186" lon="17.7279639">
        <ele>22.7283</ele>
        <time>2012-03-12T15:02:16Z</time>
      </trkpt>
      <trkpt lat="59.9744148" lon="17.7277426">
        <ele>22.7283</ele>
        <time>2012-03-12T15:02:23Z</time>
      </trkpt>
      <trkpt lat="59.974409" lon="17.7275561">
        <ele>22.7283</ele>
        <time>2012-03-12T15:02:29Z</time>
      </trkpt>
      <trkpt lat="59.9744127" lon="17.7273901">
        <ele>22.2476</ele>
        <time>2012-03-12T15:02:34Z</time>
      </trkpt>
      <trkpt lat="59.9744097" lon="17.7273319">
        <ele>22.2476</ele>
        <time>2012-03-12T15:02:36Z</time>
      </trkpt>
      <trkpt lat="59.9744071" lon="17.7269692">
        <ele>20.8057</ele>
        <time>2012-03-12T15:02:47Z</time>
      </trkpt>
      <trkpt lat="59.9744004" lon="17.7267443">
        <ele>19.8444</ele>
        <time>2012-03-12T15:02:54Z</time>
      </trkpt>
      <trkpt lat="59.974392" lon="17.7264673">
        <ele>19.3638</ele>
        <time>2012-03-12T15:03:03Z</time>
      </trkpt>
      <trkpt lat="59.9743833" lon="17.7262861">
        <ele>18.8831</ele>
        <time>2012-03-12T15:03:09Z</time>
      </trkpt>
      <trkpt lat="59.9743724" lon="17.7260761">
        <ele>18.4023</ele>
        <time>2012-03-12T15:03:16Z</time>
      </trkpt>
      <trkpt lat="59.9743627" lon="17.7257761">
        <ele>17.4412</ele>
        <time>2012-03-12T15:03:26Z</time>
      </trkpt>
      <trkpt lat="59.9743377" lon="17.7255554">
        <ele>16.4797</ele>
        <time>2012-03-12T15:03:33Z</time>
      </trkpt>
      <trkpt lat="59.9743055" lon="17.7252704">
        <ele>17.4412</ele>
        <time>2012-03-12T15:03:42Z</time>
      </trkpt>
      <trkpt lat="59.9742645" lon="17.7249584">
        <ele>17.4412</ele>
        <time>2012-03-12T15:03:52Z</time>
      </trkpt>
      <trkpt lat="59.9742458" lon="17.7247791">
        <ele>18.4023</ele>
        <time>2012-03-12T15:03:58Z</time>
      </trkpt>
      <trkpt lat="59.974216" lon="17.7246201">
        <ele>19.3638</ele>
        <time>2012-03-12T15:04:03Z</time>
      </trkpt>
      <trkpt lat="59.9741797" lon="17.724396">
        <ele>19.8444</ele>
        <time>2012-03-12T15:04:10Z</time>
      </trkpt>
      <trkpt lat="59.9741475" lon="17.7241459">
        <ele>20.325</ele>
        <time>2012-03-12T15:04:18Z</time>
      </trkpt>
      <trkpt lat="59.9741044" lon="17.7238674">
        <ele>19.8444</ele>
        <time>2012-03-12T15:04:27Z</time>
      </trkpt>
      <trkpt lat="59.9740689" lon="17.723657">
        <ele>19.8444</ele>
        <time>2012-03-12T15:04:34Z</time>
      </trkpt>
      <trkpt lat="59.974056" lon="17.7235621">
        <ele>19.8444</ele>
        <time>2012-03-12T15:04:37Z</time>
      </trkpt>
      <trkpt lat="59.9740154" lon="17.7233279">
        <ele>19.3638</ele>
        <time>2012-03-12T15:04:45Z</time>
      </trkpt>
      <trkpt lat="59.974061" lon="17.7233192">
        <ele>19.3638</ele>
        <time>2012-03-12T15:04:49Z</time>
      </trkpt>
      <trkpt lat="59.9740993" lon="17.7234158">
        <ele>19.8444</ele>
        <time>2012-03-12T15:04:53Z</time>
      </trkpt>
      <trkpt lat="59.9741429" lon="17.7236603">
        <ele>23.209</ele>
        <time>2012-03-12T15:05:01Z</time>
      </trkpt>
      <trkpt lat="59.9741927" lon="17.7239326">
        <ele>25.1317</ele>
        <time>2012-03-12T15:05:10Z</time>
      </trkpt>
      <trkpt lat="59.9742418" lon="17.7242192">
        <ele>27.0543</ele>
        <time>2012-03-12T15:05:19Z</time>
      </trkpt>
      <trkpt lat="59.9742745" lon="17.7244621">
        <ele>26.0929</ele>
        <time>2012-03-12T15:05:27Z</time>
      </trkpt>
      <trkpt lat="59.9743248" lon="17.724763">
        <ele>26.5736</ele>
        <time>2012-03-12T15:05:37Z</time>
      </trkpt>
      <trkpt lat="59.9743561" lon="17.7250403">
        <ele>27.0543</ele>
        <time>2012-03-12T15:05:46Z</time>
      </trkpt>
      <trkpt lat="59.9743786" lon="17.7253152">
        <ele>26.0929</ele>
        <time>2012-03-12T15:05:55Z</time>
      </trkpt>
      <trkpt lat="59.9744019" lon="17.7254828">
        <ele>24.651</ele>
        <time>2012-03-12T15:06:01Z</time>
      </trkpt>
      <trkpt lat="59.9744143" lon="17.7257099">
        <ele>23.6896</ele>
        <time>2012-03-12T15:06:09Z</time>
      </trkpt>
      <trkpt lat="59.9744278" lon="17.7259211">
        <ele>22.7283</ele>
        <time>2012-03-12T15:06:16Z</time>
      </trkpt>
      <trkpt lat="59.9744283" lon="17.7261517">
        <ele>22.7283</ele>
        <time>2012-03-12T15:06:23Z</time>
      </trkpt>
      <trkpt lat="59.9744364" lon="17.7263366">
        <ele>22.2476</ele>
        <time>2012-03-12T15:06:29Z</time>
      </trkpt>
      <trkpt lat="59.9744465" lon="17.7266226">
        <ele>21.767</ele>
        <time>2012-03-12T15:06:38Z</time>
      </trkpt>
      <trkpt lat="59.9744527" lon="17.7268497">
        <ele>22.7283</ele>
        <time>2012-03-12T15:06:45Z</time>
      </trkpt>
      <trkpt lat="59.9744694" lon="17.7271221">
        <ele>23.6896</ele>
        <time>2012-03-12T15:06:53Z</time>
      </trkpt>
      <trkpt lat="59.9744725" lon="17.7273074">
        <ele>25.1317</ele>
        <time>2012-03-12T15:06:59Z</time>
      </trkpt>
      <trkpt lat="59.9744727" lon="17.7275391">
        <ele>24.1703</ele>
        <time>2012-03-12T15:07:06Z</time>
      </trkpt>
      <trkpt lat="59.9744884" lon="17.7276893">
        <ele>24.651</ele>
        <time>2012-03-12T15:07:11Z</time>
      </trkpt>
      <trkpt lat="59.9744817" lon="17.7278824">
        <ele>25.6123</ele>
        <time>2012-03-12T15:07:16Z</time>
      </trkpt>
      <trkpt lat="59.9744864" lon="17.7280955">
        <ele>27.0543</ele>
        <time>2012-03-12T15:07:22Z</time>
      </trkpt>
      <trkpt lat="59.9744883" lon="17.7282588">
        <ele>27.0543</ele>
        <time>2012-03-12T15:07:27Z</time>
      </trkpt>
      <trkpt lat="59.9744828" lon="17.72839">
        <ele>26.0929</ele>
        <time>2012-03-12T15:07:31Z</time>
      </trkpt>
      <trkpt lat="59.974491" lon="17.7286698">
        <ele>25.1317</ele>
        <time>2012-03-12T15:07:40Z</time>
      </trkpt>
      <trkpt lat="59.9745004" lon="17.7289615">
        <ele>24.1703</ele>
        <time>2012-03-12T15:07:49Z</time>
      </trkpt>
      <trkpt lat="59.9745111" lon="17.7292816">
        <ele>24.1703</ele>
        <time>2012-03-12T15:07:59Z</time>
      </trkpt>
      <trkpt lat="59.9745129" lon="17.7296664">
        <ele>25.1317</ele>
        <time>2012-03-12T15:08:11Z</time>
      </trkpt>
      <trkpt lat="59.9744909" lon="17.7300213">
        <ele>25.1317</ele>
        <time>2012-03-12T15:08:22Z</time>
      </trkpt>
      <trkpt lat="59.9744655" lon="17.7302612">
        <ele>24.1703</ele>
        <time>2012-03-12T15:08:30Z</time>
      </trkpt>
      <trkpt lat="59.9744445" lon="17.730508">
        <ele>24.1703</ele>
        <time>2012-03-12T15:08:38Z</time>
      </trkpt>
      <trkpt lat="59.9744295" lon="17.7307936">
        <ele>25.1317</ele>
        <time>2012-03-12T15:08:47Z</time>
      </trkpt>
      <trkpt lat="59.9744059" lon="17.7311464">
        <ele>26.0929</ele>
        <time>2012-03-12T15:08:58Z</time>
      </trkpt>
      <trkpt lat="59.9743873" lon="17.731535">
        <ele>25.1317</ele>
        <time>2012-03-12T15:09:10Z</time>
      </trkpt>
      <trkpt lat="59.9743852" lon="17.731567">
        <ele>25.1317</ele>
        <time>2012-03-12T15:09:11Z</time>
      </trkpt>
      <trkpt lat="59.9743881" lon="17.7316837">
        <ele>24.1703</ele>
        <time>2012-03-12T15:09:15Z</time>
      </trkpt>
      <trkpt lat="59.9743889" lon="17.7319324">
        <ele>23.209</ele>
        <time>2012-03-12T15:09:23Z</time>
      </trkpt>
      <trkpt lat="59.9743956" lon="17.7321778">
        <ele>22.7283</ele>
        <time>2012-03-12T15:09:31Z</time>
      </trkpt>
      <trkpt lat="59.9744014" lon="17.7324933">
        <ele>21.767</ele>
        <time>2012-03-12T15:09:41Z</time>
      </trkpt>
      <trkpt lat="59.9744056" lon="17.732814">
        <ele>21.767</ele>
        <time>2012-03-12T15:09:51Z</time>
      </trkpt>
      <trkpt lat="59.9744002" lon="17.7330823">
        <ele>21.767</ele>
        <time>2012-03-12T15:10:00Z</time>
      </trkpt>
      <trkpt lat="59.9743943" lon="17.733332">
        <ele>22.2476</ele>
        <time>2012-03-12T15:10:08Z</time>
      </trkpt>
      <trkpt lat="59.9743872" lon="17.7335796">
        <ele>22.7283</ele>
        <time>2012-03-12T15:10:16Z</time>
      </trkpt>
      <trkpt lat="59.9743631" lon="17.7337624">
        <ele>21.2864</ele>
        <time>2012-03-12T15:10:22Z</time>
      </trkpt>
      <trkpt lat="59.9743394" lon="17.7340079">
        <ele>20.325</ele>
        <time>2012-03-12T15:10:30Z</time>
      </trkpt>
      <trkpt lat="59.9743412" lon="17.7342336">
        <ele>21.2864</ele>
        <time>2012-03-12T15:10:37Z</time>
      </trkpt>
      <trkpt lat="59.974331" lon="17.7344669">
        <ele>20.325</ele>
        <time>2012-03-12T15:10:45Z</time>
      </trkpt>
      <trkpt lat="59.9743237" lon="17.7347766">
        <ele>18.8831</ele>
        <time>2012-03-12T15:10:55Z</time>
      </trkpt>
      <trkpt lat="59.9743311" lon="17.7349797">
        <ele>18.8831</ele>
        <time>2012-03-12T15:11:01Z</time>
      </trkpt>
      <trkpt lat="59.9743501" lon="17.735219">
        <ele>18.8831</ele>
        <time>2012-03-12T15:11:09Z</time>
      </trkpt>
      <trkpt lat="59.9743805" lon="17.7354787">
        <ele>18.8831</ele>
        <time>2012-03-12T15:11:18Z</time>
      </trkpt>
      <trkpt lat="59.9744017" lon="17.7356898">
        <ele>17.9218</ele>
        <time>2012-03-12T15:11:25Z</time>
      </trkpt>
      <trkpt lat="59.9744393" lon="17.7359236">
        <ele>16.9604</ele>
        <time>2012-03-12T15:11:33Z</time>
      </trkpt>
      <trkpt lat="59.974505" lon="17.7361927">
        <ele>19.8444</ele>
        <time>2012-03-12T15:11:42Z</time>
      </trkpt>
      <trkpt lat="59.9745661" lon="17.7364275">
        <ele>22.2476</ele>
        <time>2012-03-12T15:11:50Z</time>
      </trkpt>
      <trkpt lat="59.9746143" lon="17.7366165">
        <ele>23.6896</ele>
        <time>2012-03-12T15:11:57Z</time>
      </trkpt>
      <trkpt lat="59.9746851" lon="17.7368288">
        <ele>25.6123</ele>
        <time>2012-03-12T15:12:05Z</time>
      </trkpt>
      <trkpt lat="59.9747519" lon="17.7369636">
        <ele>26.5736</ele>
        <time>2012-03-12T15:12:11Z</time>
      </trkpt>
      <trkpt lat="59.9747739" lon="17.7370115">
        <ele>27.0543</ele>
        <time>2012-03-12T15:12:13Z</time>
      </trkpt>
      <trkpt lat="59.9748334" lon="17.7371264">
        <ele>27.5349</ele>
        <time>2012-03-12T15:12:18Z</time>
      </trkpt>
      <trkpt lat="59.9749111" lon="17.7373243">
        <ele>26.5736</ele>
        <time>2012-03-12T15:12:26Z</time>
      </trkpt>
      <trkpt lat="59.9750027" lon="17.7374905">
        <ele>26.0929</ele>
        <time>2012-03-12T15:12:34Z</time>
      </trkpt>
      <trkpt lat="59.9750798" lon="17.7376376">
        <ele>25.1317</ele>
        <time>2012-03-12T15:12:41Z</time>
      </trkpt>
      <trkpt lat="59.9751811" lon="17.737792">
        <ele>25.1317</ele>
        <time>2012-03-12T15:12:49Z</time>
      </trkpt>
      <trkpt lat="59.9752597" lon="17.7379389">
        <ele>24.1703</ele>
        <time>2012-03-12T15:12:56Z</time>
      </trkpt>
      <trkpt lat="59.9753602" lon="17.7380957">
        <ele>24.1703</ele>
        <time>2012-03-12T15:13:04Z</time>
      </trkpt>
      <trkpt lat="59.9754704" lon="17.7382748">
        <ele>24.651</ele>
        <time>2012-03-12T15:13:13Z</time>
      </trkpt>
      <trkpt lat="59.9755782" lon="17.73846">
        <ele>24.1703</ele>
        <time>2012-03-12T15:13:22Z</time>
      </trkpt>
      <trkpt lat="59.9756722" lon="17.738613">
        <ele>25.6123</ele>
        <time>2012-03-12T15:13:29Z</time>
      </trkpt>
      <trkpt lat="59.9757575" lon="17.7387612">
        <ele>26.0929</ele>
        <time>2012-03-12T15:13:36Z</time>
      </trkpt>
      <trkpt lat="59.9758392" lon="17.7388974">
        <ele>25.1317</ele>
        <time>2012-03-12T15:13:43Z</time>
      </trkpt>
      <trkpt lat="59.9759082" lon="17.7390202">
        <ele>23.6896</ele>
        <time>2012-03-12T15:13:49Z</time>
      </trkpt>
      <trkpt lat="59.9759734" lon="17.7391456">
        <ele>21.767</ele>
        <time>2012-03-12T15:13:55Z</time>
      </trkpt>
      <trkpt lat="59.9759806" lon="17.7391725">
        <ele>21.2864</ele>
        <time>2012-03-12T15:13:56Z</time>
      </trkpt>
      <trkpt lat="59.9760518" lon="17.7393156">
        <ele>20.8057</ele>
        <time>2012-03-12T15:14:03Z</time>
      </trkpt>
      <trkpt lat="59.9761439" lon="17.7394758">
        <ele>22.2476</ele>
        <time>2012-03-12T15:14:11Z</time>
      </trkpt>
      <trkpt lat="59.9762315" lon="17.7396095">
        <ele>24.1703</ele>
        <time>2012-03-12T15:14:18Z</time>
      </trkpt>
      <trkpt lat="59.9762731" lon="17.7396594">
        <ele>24.1703</ele>
        <time>2012-03-12T15:14:21Z</time>
      </trkpt>
      <trkpt lat="59.9764128" lon="17.739716">
        <ele>26.5736</ele>
        <time>2012-03-12T15:14:29Z</time>
      </trkpt>
      <trkpt lat="59.97646" lon="17.7396246">
        <ele>24.651</ele>
        <time>2012-03-12T15:14:37Z</time>
      </trkpt>
      <trkpt lat="59.9764961" lon="17.739567">
        <ele>24.651</ele>
        <time>2012-03-12T15:14:41Z</time>
      </trkpt>
      <trkpt lat="59.9766054" lon="17.7394484">
        <ele>24.651</ele>
        <time>2012-03-12T15:14:50Z</time>
      </trkpt>
      <trkpt lat="59.9766929" lon="17.7393921">
        <ele>26.0929</ele>
        <time>2012-03-12T15:14:57Z</time>
      </trkpt>
      <trkpt lat="59.9767769" lon="17.7393279">
        <ele>26.5736</ele>
        <time>2012-03-12T15:15:03Z</time>
      </trkpt>
      <trkpt lat="59.9768251" lon="17.7393034">
        <ele>28.0155</ele>
        <time>2012-03-12T15:15:06Z</time>
      </trkpt>
      <trkpt lat="59.976936" lon="17.7392678">
        <ele>29.9381</ele>
        <time>2012-03-12T15:15:13Z</time>
      </trkpt>
      <trkpt lat="59.9770266" lon="17.7392086">
        <ele>32.3416</ele>
        <time>2012-03-12T15:15:19Z</time>
      </trkpt>
      <trkpt lat="59.9771109" lon="17.739165">
        <ele>33.7834</ele>
        <time>2012-03-12T15:15:25Z</time>
      </trkpt>
      <trkpt lat="59.9771893" lon="17.7391215">
        <ele>33.7834</ele>
        <time>2012-03-12T15:15:31Z</time>
      </trkpt>
      <trkpt lat="59.97728" lon="17.7390803">
        <ele>34.2642</ele>
        <time>2012-03-12T15:15:36Z</time>
      </trkpt>
      <trkpt lat="59.9773461" lon="17.7390404">
        <ele>33.3029</ele>
        <time>2012-03-12T15:15:41Z</time>
      </trkpt>
      <trkpt lat="59.9773975" lon="17.7390087">
        <ele>33.3029</ele>
        <time>2012-03-12T15:15:44Z</time>
      </trkpt>
      <trkpt lat="59.977511" lon="17.7389616">
        <ele>34.7449</ele>
        <time>2012-03-12T15:15:51Z</time>
      </trkpt>
      <trkpt lat="59.9776063" lon="17.7389451">
        <ele>35.2255</ele>
        <time>2012-03-12T15:15:57Z</time>
      </trkpt>
      <trkpt lat="59.9777016" lon="17.7389335">
        <ele>34.7449</ele>
        <time>2012-03-12T15:16:04Z</time>
      </trkpt>
      <trkpt lat="59.977802" lon="17.7389708">
        <ele>33.7834</ele>
        <time>2012-03-12T15:16:10Z</time>
      </trkpt>
      <trkpt lat="59.9779037" lon="17.7390076">
        <ele>34.7449</ele>
        <time>2012-03-12T15:16:16Z</time>
      </trkpt>
      <trkpt lat="59.9779835" lon="17.7390574">
        <ele>35.7061</ele>
        <time>2012-03-12T15:16:21Z</time>
      </trkpt>
      <trkpt lat="59.9780635" lon="17.7391021">
        <ele>34.7449</ele>
        <time>2012-03-12T15:16:26Z</time>
      </trkpt>
      <trkpt lat="59.9780844" lon="17.7391206">
        <ele>34.7449</ele>
        <time>2012-03-12T15:16:28Z</time>
      </trkpt>
      <trkpt lat="59.9782042" lon="17.7391529">
        <ele>36.6675</ele>
        <time>2012-03-12T15:16:35Z</time>
      </trkpt>
      <trkpt lat="59.9783113" lon="17.7391889">
        <ele>38.5901</ele>
        <time>2012-03-12T15:16:41Z</time>
      </trkpt>
      <trkpt lat="59.9783921" lon="17.7391932">
        <ele>36.6675</ele>
        <time>2012-03-12T15:16:47Z</time>
      </trkpt>
      <trkpt lat="59.978455" lon="17.7392173">
        <ele>35.7061</ele>
        <time>2012-03-12T15:16:52Z</time>
      </trkpt>
      <trkpt lat="59.9785363" lon="17.7392505">
        <ele>33.3029</ele>
        <time>2012-03-12T15:16:58Z</time>
      </trkpt>
      <trkpt lat="59.9785976" lon="17.7392549">
        <ele>32.3416</ele>
        <time>2012-03-12T15:17:02Z</time>
      </trkpt>
      <trkpt lat="59.9786496" lon="17.739263">
        <ele>31.3801</ele>
        <time>2012-03-12T15:17:06Z</time>
      </trkpt>
      <trkpt lat="59.9787594" lon="17.7393125">
        <ele>29.4575</ele>
        <time>2012-03-12T15:17:13Z</time>
      </trkpt>
      <trkpt lat="59.9788242" lon="17.7393486">
        <ele>27.5349</ele>
        <time>2012-03-12T15:17:18Z</time>
      </trkpt>
      <trkpt lat="59.9788967" lon="17.7394004">
        <ele>25.1317</ele>
        <time>2012-03-12T15:17:23Z</time>
      </trkpt>
      <trkpt lat="59.9789173" lon="17.7394408">
        <ele>24.1703</ele>
        <time>2012-03-12T15:17:25Z</time>
      </trkpt>
      <trkpt lat="59.9789562" lon="17.7395237">
        <ele>23.6896</ele>
        <time>2012-03-12T15:17:29Z</time>
      </trkpt>
      <trkpt lat="59.9789665" lon="17.739675">
        <ele>24.1703</ele>
        <time>2012-03-12T15:17:34Z</time>
      </trkpt>
      <trkpt lat="59.9789543" lon="17.7397515">
        <ele>24.651</ele>
        <time>2012-03-12T15:17:37Z</time>
      </trkpt>
      <trkpt lat="59.9789545" lon="17.7398366">
        <ele>24.651</ele>
        <time>2012-03-12T15:17:40Z</time>
      </trkpt>
    </trkseg>
  </trk>
</gpx>